createdAt,value
2023-02-16T00:05:02.306Z,101565.38
2023-02-16T00:15:19.612Z,101557.97
2023-02-16T00:25:21.577Z,101563.94
2023-02-16T00:35:23.785Z,101552.63
2023-02-16T00:45:26.812Z,101551.66
2023-02-16T00:55:32.816Z,101539.97
2023-02-16T01:05:34.680Z,101538.09
2023-02-16T01:15:36.738Z,101537.59
2023-02-16T01:25:39.916Z,101528.06
2023-02-16T01:35:42.356Z,101527.72
2023-02-16T01:45:48.211Z,101513.03
2023-02-16T01:55:57.540Z,101508.72
2023-02-16T02:05:59.217Z,101490.13
2023-02-16T02:16:01.896Z,101482.69
2023-02-16T02:26:42.895Z,101474.88
2023-02-16T02:36:55.662Z,101468.19
2023-02-16T02:46:59.711Z,101479.13
2023-02-16T02:57:38.338Z,101486.72
2023-02-16T03:07:49.888Z,101475.50
2023-02-16T03:18:16.059Z,101457.03
2023-02-16T03:28:41.233Z,101456.47
2023-02-16T03:38:49.194Z,101453.66
2023-02-16T03:48:52.964Z,101462.38
2023-02-16T03:58:54.778Z,101459.63
2023-02-16T04:08:56.971Z,101441.91
2023-02-16T04:18:59.027Z,101428.66
2023-02-16T04:29:01.397Z,101448.13
2023-02-16T04:39:07.199Z,101453.03
2023-02-16T04:49:08.841Z,101455.44
2023-02-16T04:59:10.740Z,101461.53
2023-02-16T05:09:13.573Z,101442.97
2023-02-16T05:19:15.451Z,101449.78
2023-02-16T05:29:20.252Z,101449.38
2023-02-16T05:39:22.642Z,101444.69
2023-02-16T05:49:27.406Z,101439.09
2023-02-16T05:59:41.848Z,101426.53
2023-02-16T06:09:45.625Z,101439.59
2023-02-16T06:19:47.313Z,101450.03
2023-02-16T06:29:51.066Z,101440.50
2023-02-16T06:39:52.743Z,101442.88
2023-02-16T06:49:54.676Z,101447.00
2023-02-16T06:59:56.975Z,101439.56
2023-02-16T07:09:59.721Z,101436.31
2023-02-16T07:20:01.664Z,101442.28
2023-02-16T07:30:03.499Z,101438.50
2023-02-16T07:40:06.795Z,101449.59
2023-02-16T07:50:09.288Z,101430.28
2023-02-16T08:00:11.588Z,101445.22
2023-02-16T08:10:13.834Z,101420.59
2023-02-16T08:20:15.804Z,101439.97
2023-02-16T08:30:18.796Z,101452.22
2023-02-16T08:40:26.862Z,101459.34
2023-02-16T08:50:29.208Z,101458.59
2023-02-16T09:00:38.751Z,101439.88
2023-02-16T09:10:46.746Z,101461.16
2023-02-16T09:20:48.846Z,101449.09
2023-02-16T09:30:51.941Z,101444.09
2023-02-16T09:40:53.811Z,101451.34
2023-02-16T09:50:56.556Z,101451.94
2023-02-16T10:01:09.010Z,101443.69
2023-02-16T10:11:39.537Z,101436.97
2023-02-16T10:21:48.375Z,101435.06
2023-02-16T10:32:15.643Z,101419.84
2023-02-16T10:42:50.562Z,101411.09
2023-02-16T10:52:58.353Z,101406.47
2023-02-16T11:03:03.915Z,101374.53
2023-02-16T11:13:09.014Z,101377.41
2023-02-16T11:23:36.418Z,101375.41
2023-02-16T11:33:41.692Z,101351.22
2023-02-16T11:43:46.723Z,101346.97
2023-02-16T11:54:01.176Z,101310.88
2023-02-16T12:04:40.215Z,101300.78
2023-02-16T12:15:12.164Z,101287.41
2023-02-16T12:25:27.024Z,101283.88
2023-02-16T12:35:54.684Z,101262.75
2023-02-16T12:46:05.083Z,101252.38
2023-02-16T12:56:18.048Z,101243.34
2023-02-16T13:06:57.681Z,101228.09
2023-02-16T13:17:14.578Z,101207.00
2023-02-16T13:27:37.445Z,101196.06
2023-02-16T13:38:15.162Z,101184.94
2023-02-16T13:48:36.899Z,101173.88
2023-02-16T13:58:40.981Z,101166.13
2023-02-16T14:08:44.428Z,101172.06
2023-02-16T14:18:56.762Z,101167.00
2023-02-16T14:29:18.437Z,101143.16
2023-02-16T14:39:27.005Z,101161.09
2023-02-16T14:50:29.512Z,101149.19
2023-02-16T15:00:58.087Z,101149.19
2023-02-16T15:11:13.965Z,101140.75
2023-02-16T15:21:22.974Z,101134.81
2023-02-16T15:31:34.213Z,101127.16
2023-02-16T15:41:39.736Z,101126.56
2023-02-16T15:51:58.532Z,101098.00
2023-02-16T16:02:09.678Z,101123.94
2023-02-16T16:12:17.713Z,101135.41
2023-02-16T16:22:36.198Z,101087.16
2023-02-16T16:32:40.387Z,101120.56
2023-02-16T16:43:10.125Z,101140.78
2023-02-16T16:53:44.562Z,101151.66
2023-02-16T17:03:52.858Z,101119.28
2023-02-16T17:13:57.955Z,101124.91
2023-02-16T17:34:46.611Z,101102.66
2023-02-16T17:44:51.164Z,101105.03
2023-02-16T17:54:55.654Z,101111.34
2023-02-16T18:04:58.280Z,101109.47
2023-02-16T18:15:06.930Z,101123.63
2023-02-16T18:25:11.224Z,101137.69
2023-02-16T18:35:19.262Z,101149.94
2023-02-16T18:45:22.058Z,101149.75
2023-02-16T18:55:34.286Z,101159.28
2023-02-16T19:05:38.769Z,101129.94
2023-02-16T19:15:43.712Z,101146.97
2023-02-16T19:25:49.871Z,101148.81
2023-02-16T19:36:10.314Z,101155.22
2023-02-16T19:57:04.194Z,101132.03
2023-02-16T20:07:07.516Z,101119.16
2023-02-16T20:17:10.712Z,101135.69
2023-02-16T20:27:17.203Z,101156.72
2023-02-16T20:37:26.096Z,101165.69
2023-02-16T20:47:37.608Z,101162.31
2023-02-16T20:57:44.947Z,101162.47
2023-02-16T21:07:49.778Z,101140.44
2023-02-16T21:17:57.932Z,101136.06
2023-02-16T21:28:01.638Z,101132.59
2023-02-16T21:38:06.006Z,101135.09
2023-02-16T21:48:31.395Z,101111.88
2023-02-16T21:58:35.969Z,101111.03
2023-02-16T22:08:38.195Z,101118.91
2023-02-16T22:18:40.850Z,101128.16
2023-02-16T22:28:45.003Z,101110.34
2023-02-16T22:38:53.755Z,101097.06
2023-02-16T22:49:02.662Z,101111.78
2023-02-16T22:59:04.332Z,101073.59
2023-02-16T23:09:18.677Z,101100.00
2023-02-16T23:19:21.859Z,101096.31
2023-02-16T23:29:26.222Z,101067.72
2023-02-16T23:39:28.191Z,101101.97
2023-02-16T23:49:29.990Z,101082.13
2023-02-16T23:59:31.871Z,101087.72
